KEYW

Key West International Airport

Key West, Florida, USA
METAR KEYW 260353Z AUTO 14010KT 10SM BKN090 OVC110 25/22 A2995 RMK AO2 RAE46 SLP140 P0000 T02500222
Observed Flight Rules
May-26 @ 03:53 UTC (19 minutes ago) Visual Flight Rules
Wind Visibility Clouds
140° at 10 knots 10 miles
  • Broken at 9,000' AGL
  • Overcast at 11,000' AGL
Temperatures Readings Precipitation
Current 25°C / 77°F
Dewpoint 22°C / 72°F
Humidity 83%
Altimeter 29.95" Hg
Pressure 1014 hPa
Elevation 5
Current Rain 0.005
METAR KEYW 260353Z AUTO 14010KT 10SM BKN090 OVC110 25/22 A2995 RMK AO2 RAE46 SLP140 P0000 T02500222
Observed Flight Rules
May-26 @ 03:53 UTC
(19 minutes ago)
VFR
Wind Visibility
140° at 10 knots 10 miles
Clouds
  • Broken at 9,000' AGL
  • Overcast at 11,000' AGL
Temperature Dewpoint
25°C / 77°F 22°C / 72°F
Humidity Altimeter Pressure
83% 29.95" Hg 1014 hPa
Current Rain
0.005